Time;durP1;ratioP1;P1;durP2;ratioP2;P2;SDS_P1;SDS_P2;PMS_P1;PMS_P2;Temp;Humidity;BMP_temperature;BMP_pressure;BME280_temperature;BME280_humidity;BME280_pressure;Samples;Min_cycle;Max_cycle;Signal;HPM_P1;HPM_P2
2022/03/25 00:01:57;;;;;;;13.23;9.47;;;;;;;;;;5114415;28;20450;-71
2022/03/25 00:04:24;;;;;;;13.87;10.07;;;;;;;;;;5100398;28;20544;-70
2022/03/25 00:06:52;;;;;;;16.60;11.10;;;;;;;;;;5112857;28;20454;-71
2022/03/25 00:09:19;;;;;;;14.63;10.27;;;;;;;;;;5113856;28;20462;-70
2022/03/25 00:11:47;;;;;;;18.00;9.90;;;;;;;;;;5113055;28;20553;-71
2022/03/25 00:14:15;;;;;;;21.77;10.40;;;;;;;;;;5113941;28;20450;-71
2022/03/25 00:16:42;;;;;;;13.07;8.87;;;;;;;;;;5112592;28;20451;-72
2022/03/25 00:19:09;;;;;;;24.90;11.60;;;;;;;;;;5113554;28;20530;-70
2022/03/25 00:21:37;;;;;;;21.53;12.00;;;;;;;;;;5113087;28;20534;-71
2022/03/25 00:24:05;;;;;;;17.80;11.67;;;;;;;;;;5113503;28;20465;-70
2022/03/25 00:26:33;;;;;;;16.70;10.57;;;;;;;;;;5112754;28;20451;-69
2022/03/25 00:29:01;;;;;;;12.30;10.00;;;;;;;;;;5113635;28;20456;-70
2022/03/25 00:31:29;;;;;;;21.00;11.07;;;;;;;;;;5113071;28;20451;-71
2022/03/25 00:33:56;;;;;;;17.67;10.10;;;;;;;;;;5113422;28;20450;-71
2022/03/25 00:36:24;;;;;;;15.70;10.47;;;;;;;;;;5112686;28;20494;-70
2022/03/25 00:38:51;;;;;;;19.00;13.10;;;;;;;;;;5112575;28;20534;-70
2022/03/25 00:41:18;;;;;;;22.60;10.93;;;;;;;;;;5113052;28;20442;-71
2022/03/25 00:43:46;;;;;;;16.10;10.50;;;;;;;;;;5112839;28;20451;-71
2022/03/25 00:46:15;;;;;;;19.57;11.70;;;;;;;;;;5112011;28;20487;-70
2022/03/25 00:48:42;;;;;;;16.23;10.70;;;;;;;;;;5112620;28;20447;-70
2022/03/25 00:51:10;;;;;;;21.70;11.70;;;;;;;;;;5112997;28;20447;-70
2022/03/25 00:53:37;;;;;;;18.73;11.10;;;;;;;;;;5112561;28;20955;-70
2022/03/25 00:56:06;;;;;;;17.33;10.10;;;;;;;;;;5112698;28;21028;-70
2022/03/25 00:58:33;;;;;;;18.63;10.93;;;;;;;;;;5112383;28;20445;-71
2022/03/25 01:01:00;;;;;;;16.27;10.90;;;;;;;;;;5112992;28;20487;-70
2022/03/25 01:03:30;;;;;;;15.87;10.37;;;;;;;;;;5112668;28;20978;-70
2022/03/25 01:05:57;;;;;;;19.63;11.30;;;;;;;;;;5112537;28;20476;-70
2022/03/25 01:08:24;;;;;;;14.77;9.53;;;;;;;;;;5112661;28;20943;-69
2022/03/25 01:10:52;;;;;;;17.87;10.57;;;;;;;;;;5112393;28;20495;-70
2022/03/25 01:13:19;;;;;;;15.63;9.77;;;;;;;;;;5112667;28;20801;-69
2022/03/25 01:15:46;;;;;;;18.13;11.20;;;;;;;;;;5111549;28;20449;-70
2022/03/25 01:18:14;;;;;;;15.37;9.97;;;;;;;;;;5112815;28;20459;-70
2022/03/25 01:20:42;;;;;;;17.40;9.97;;;;;;;;;;5111855;28;20496;-69
2022/03/25 01:23:10;;;;;;;18.63;10.17;;;;;;;;;;5112283;28;20930;-70
2022/03/25 01:25:37;;;;;;;20.83;10.50;;;;;;;;;;5111197;28;20576;-70
2022/03/25 01:28:04;;;;;;;17.50;10.60;;;;;;;;;;5111973;28;20496;-69
2022/03/25 01:30:31;;;;;;;20.00;10.17;;;19.40;1.00;;;;;;5111631;28;20455;-69
2022/03/25 01:32:58;;;;;;;16.60;9.70;;;5.80;99.90;;;;;;5112480;28;20460;-70
2022/03/25 01:35:25;;;;;;;18.53;11.53;;;5.70;99.90;;;;;;5112140;28;20877;-70
2022/03/25 01:37:53;;;;;;;21.90;13.17;;;5.70;99.90;;;;;;5111565;28;20822;-70
2022/03/25 01:40:20;;;;;;;21.80;11.43;;;5.80;99.90;;;;;;5111959;28;20441;-69
2022/03/25 01:42:47;;;;;;;17.30;11.40;;;5.90;99.90;;;;;;5111542;28;20537;-69
2022/03/25 01:45:14;;;;;;;16.77;11.53;;;6.00;99.90;;;;;;5111666;28;20479;-70
2022/03/25 01:47:42;;;;;;;15.77;10.47;;;5.90;99.90;;;;;;5111376;28;20540;-71
2022/03/25 01:50:18;;;;;;;20.23;12.57;;;6.10;99.90;;;;;;5111703;28;20446;-70
2022/03/25 01:52:46;;;;;;;23.87;12.03;;;5.80;99.90;;;;;;5111216;28;20920;-70
2022/03/25 01:55:21;;;;;;;14.17;9.93;;;5.70;99.90;;;;;;5111480;28;20564;-70
2022/03/25 01:57:49;;;;;;;20.70;13.47;;;5.50;99.90;;;;;;5111437;28;20502;-70
2022/03/25 02:00:17;;;;;;;23.67;12.57;;;5.50;99.90;;;;;;5111821;28;20497;-70
2022/03/25 02:02:44;;;;;;;20.77;11.97;;;5.30;99.90;;;;;;5110996;28;20446;-69
2022/03/25 02:05:11;;;;;;;14.97;10.00;;;5.20;99.90;;;;;;5093213;28;20487;-70
2022/03/25 02:07:38;;;;;;;24.00;14.07;;;5.30;99.90;;;;;;5111319;28;20447;-70
2022/03/25 02:10:06;;;;;;;20.80;11.47;;;5.30;99.90;;;;;;5111818;28;20451;-70
2022/03/25 02:12:35;;;;;;;17.20;10.90;;;5.20;99.90;;;;;;5110991;28;20535;-68
2022/03/25 02:15:02;;;;;;;17.30;12.07;;;5.20;99.90;;;;;;5110919;28;20448;-70
2022/03/25 02:17:29;;;;;;;18.17;11.30;;;5.30;99.90;;;;;;5111106;28;20453;-69
2022/03/25 02:19:57;;;;;;;18.20;11.27;;;5.30;99.90;;;;;;5111166;28;20458;-69
2022/03/25 02:22:25;;;;;;;16.73;10.50;;;5.30;99.90;;;;;;5111546;28;20448;-70
2022/03/25 02:24:54;;;;;;;21.50;11.30;;;5.20;99.90;;;;;;5110194;28;20545;-71
2022/03/25 02:27:23;;;;;;;16.57;11.73;;;5.60;99.90;;;;;;5111838;28;20479;-70
2022/03/25 02:29:50;;;;;;;20.27;11.80;;;5.70;99.90;;;;;;5110982;28;20443;-69
2022/03/25 02:32:17;;;;;;;16.90;11.63;;;5.80;99.90;;;;;;5111477;28;20448;-69
2022/03/25 02:34:44;;;;;;;15.73;10.70;;;5.80;99.90;;;;;;5110486;28;20790;-70
2022/03/25 02:37:11;;;;;;;18.20;12.10;;;5.70;99.90;;;;;;5111207;28;20451;-69
2022/03/25 02:39:39;;;;;;;19.53;12.53;;;5.60;99.90;;;;;;5110920;28;20449;-69
2022/03/25 02:42:06;;;;;;;17.60;12.13;;;5.60;99.90;;;;;;5111332;28;20492;-69
2022/03/25 02:44:33;;;;;;;18.97;11.20;;;5.60;99.90;;;;;;5109731;28;20461;-69
2022/03/25 02:47:00;;;;;;;20.23;11.07;;;5.50;99.90;;;;;;5111323;28;20489;-70
2022/03/25 02:49:27;;;;;;;21.43;12.27;;;5.40;99.90;;;;;;5111032;28;20450;-70
2022/03/25 02:51:54;;;;;;;21.10;11.80;;;5.50;99.90;;;;;;5111322;28;20478;-70
2022/03/25 02:54:21;;;;;;;25.20;13.90;;;5.40;99.90;;;;;;5110803;28;20462;-70
2022/03/25 02:56:49;;;;;;;18.77;11.90;;;5.30;99.90;;;;;;5110361;28;20659;-69
2022/03/25 02:59:16;;;;;;;22.57;12.40;;;5.40;99.90;;;;;;5111177;28;20441;-69
2022/03/25 03:01:43;;;;;;;19.37;11.03;;;5.40;99.90;;;;;;5110433;28;20455;-70
2022/03/25 03:04:10;;;;;;;16.30;9.27;;;5.10;99.90;;;;;;5111092;28;20444;-69
2022/03/25 03:06:37;;;;;;;20.47;11.20;;;4.80;1.00;;;;;;5109962;28;20847;-70
2022/03/25 03:09:04;;;;;;;17.37;11.97;;;4.70;1.00;;;;;;5111132;28;20457;-70
2022/03/25 03:11:31;;;;;;;18.00;11.37;;;4.80;1.00;;;;;;5114578;28;20489;-69
2022/03/25 03:13:59;;;;;;;20.77;13.13;;;4.80;1.00;;;;;;5115205;28;20494;-70
2022/03/25 03:16:26;;;;;;;19.70;12.20;;;4.80;1.00;;;;;;5114533;28;20456;-71
2022/03/25 03:18:53;;;;;;;20.50;12.97;;;4.70;1.00;;;;;;5115105;28;20450;-70
2022/03/25 03:21:23;;;;;;;19.50;11.80;;;4.60;1.00;;;;;;5115032;28;20448;-71
2022/03/25 03:23:51;;;;;;;19.57;11.40;;;4.50;1.00;;;;;;5101458;28;20459;-70
2022/03/25 03:26:19;;;;;;;25.07;14.00;;;4.60;1.00;;;;;;5114418;28;20519;-70
2022/03/25 03:28:45;;;;;;;21.13;12.97;;;4.70;1.00;;;;;;5114411;28;20438;-70
2022/03/25 03:31:14;;;;;;;17.97;11.53;;;4.70;1.00;;;;;;5115147;28;20467;-70
2022/03/25 03:33:41;;;;;;;19.23;11.43;;;4.70;1.00;;;;;;5115105;28;20453;-69
2022/03/25 03:36:08;;;;;;;21.83;11.40;;;4.50;1.00;;;;;;5114567;28;20455;-70
2022/03/25 03:38:35;;;;;;;21.53;13.87;;;4.50;1.00;;;;;;5114154;28;20447;-69
2022/03/25 03:41:02;;;;;;;19.17;11.63;;;4.40;1.00;;;;;;5119074;28;20442;-69
2022/03/25 03:43:29;;;;;;;17.50;11.83;;;4.30;1.00;;;;;;5115191;28;20466;-70
2022/03/25 03:45:56;;;;;;;19.30;12.60;;;4.40;1.00;;;;;;5112745;28;20995;-71
2022/03/25 03:48:24;;;;;;;20.07;12.33;;;4.40;1.00;;;;;;5110106;28;20864;-69
2022/03/25 03:50:51;;;;;;;20.37;12.07;;;4.30;1.00;;;;;;5110777;28;20494;-67
2022/03/25 03:53:18;;;;;;;18.60;12.03;;;4.50;1.00;;;;;;5114518;28;20453;-68
2022/03/25 03:55:45;;;;;;;21.80;12.20;;;4.40;1.00;;;;;;5112692;28;20510;-69
2022/03/25 03:58:11;;;;;;;20.10;11.27;;;4.30;1.00;;;;;;5104740;28;20535;-69
2022/03/25 04:00:38;;;;;;;16.90;10.90;;;4.20;11.60;;;;;;5097707;28;20444;-68
2022/03/25 04:03:07;;;;;;;19.43;11.90;;;4.30;1.00;;;;;;5103708;28;20835;-68
2022/03/25 04:05:35;;;;;;;23.10;11.97;;;4.40;1.00;;;;;;5112599;28;20475;-67
2022/03/25 04:08:02;;;;;;;21.70;11.67;;;4.30;1.00;;;;;;5113937;28;20770;-68
2022/03/25 04:10:29;;;;;;;20.70;11.40;;;4.20;1.00;;;;;;5099201;28;20997;-68
2022/03/25 04:12:56;;;;;;;26.80;12.80;;;4.20;53.40;;;;;;5114070;28;20450;-69
2022/03/25 04:15:23;;;;;;;19.33;11.90;;;4.30;1.00;;;;;;5113370;28;20450;-69
2022/03/25 04:17:50;;;;;;;19.60;12.30;;;4.20;1.00;;;;;;5113078;28;20450;-69
2022/03/25 04:20:18;;;;;;;18.63;13.10;;;4.30;2.30;;;;;;5110930;28;20474;-69
2022/03/25 04:22:47;;;;;;;20.73;12.57;;;4.20;1.00;;;;;;5100619;28;20454;-69
2022/03/25 04:25:15;;;;;;;22.93;13.07;;;4.20;11.30;;;;;;5103871;28;20463;-69
2022/03/25 04:27:53;;;;;;;21.30;11.20;;;4.40;1.00;;;;;;5113335;28;20450;-69
2022/03/25 04:30:22;;;;;;;18.57;11.60;;;4.40;1.00;;;;;;5112889;28;20492;-68
2022/03/25 04:32:49;;;;;;;20.73;11.70;;;4.20;1.00;;;;;;5111581;28;20455;-68
2022/03/25 04:35:15;;;;;;;21.73;11.93;;;4.10;1.00;;;;;;5109806;28;20446;-69
2022/03/25 04:37:42;;;;;;;17.50;12.20;;;4.20;90.80;;;;;;5112324;28;20815;-68
2022/03/25 04:40:13;;;;;;;19.43;11.60;;;4.30;65.60;;;;;;5113360;28;20542;-67
2022/03/25 04:42:40;;;;;;;23.10;13.40;;;4.10;70.50;;;;;;5104231;28;20512;-68
2022/03/25 04:45:08;;;;;;;24.40;13.47;;;4.20;99.90;;;;;;5106000;28;20455;-68
2022/03/25 04:47:35;;;;;;;23.03;13.07;;;4.20;32.30;;;;;;5109810;28;20483;-68
2022/03/25 04:50:02;;;;;;;25.40;14.20;;;4.30;1.00;;;;;;5105620;28;20436;-68
2022/03/25 04:52:29;;;;;;;21.03;12.43;;;4.40;1.00;;;;;;5112260;28;20807;-68
2022/03/25 04:54:55;;;;;;;20.30;12.70;;;4.20;1.00;;;;;;5112350;28;20570;-68
2022/03/25 04:57:24;;;;;;;18.80;12.67;;;4.10;48.90;;;;;;5112957;28;20838;-69
2022/03/25 04:59:51;;;;;;;19.53;12.17;;;4.20;5.90;;;;;;5112545;28;20533;-69
2022/03/25 05:02:18;;;;;;;24.07;13.30;;;4.30;5.60;;;;;;5109317;28;20505;-70
2022/03/25 05:04:45;;;;;;;19.10;10.63;;;4.20;43.10;;;;;;5111300;28;20453;-69
2022/03/25 05:07:15;;;;;;;19.00;11.83;;;4.40;1.00;;;;;;5109160;28;20570;-69
2022/03/25 05:09:42;;;;;;;22.23;11.73;;;4.30;1.00;;;;;;5106784;28;20446;-68
2022/03/25 05:12:11;;;;;;;18.20;11.33;;;4.00;99.90;;;;;;5112468;28;20490;-69
2022/03/25 05:14:40;;;;;;;20.70;13.37;;;4.00;99.90;;;;;;5111309;28;20447;-69
2022/03/25 05:17:07;;;;;;;25.20;14.10;;;4.10;99.90;;;;;;5106420;28;20817;-69
2022/03/25 05:19:34;;;;;;;19.80;12.77;;;4.30;99.90;;;;;;5111227;28;20543;-69
2022/03/25 05:22:02;;;;;;;22.10;12.37;;;4.20;1.00;;;;;;5109531;28;20482;-69
2022/03/25 05:24:29;;;;;;;23.67;12.70;;;4.20;62.70;;;;;;5111360;28;20462;-68
2022/03/25 05:26:56;;;;;;;18.30;11.73;;;4.10;87.80;;;;;;5112190;28;20507;-69
2022/03/25 05:29:23;;;;;;;26.20;13.10;;;3.90;99.90;;;;;;5112092;28;20786;-70
2022/03/25 05:31:52;;;;;;;18.07;12.07;;;3.80;99.90;;;;;;5111779;28;20629;-70
2022/03/25 05:34:19;;;;;;;19.63;13.20;;;3.80;1.00;;;;;;5110800;28;20498;-69
2022/03/25 05:36:46;;;;;;;24.10;13.03;;;3.70;1.00;;;;;;5098487;28;20435;-68
2022/03/25 05:39:14;;;;;;;29.37;12.77;;;3.80;1.00;;;;;;5098125;28;20449;-70
2022/03/25 05:41:42;;;;;;;23.30;14.20;;;3.90;1.00;;;;;;5111392;28;20447;-69
2022/03/25 05:44:09;;;;;;;20.00;12.60;;;3.90;99.90;;;;;;5110018;28;20540;-69
2022/03/25 05:46:36;;;;;;;21.57;13.27;;;3.80;1.00;;;;;;5095056;28;20933;-68
2022/03/25 05:49:04;;;;;;;18.10;11.30;;;4.00;1.00;;;;;;5102474;28;20471;-68
2022/03/25 05:51:31;;;;;;;22.73;12.37;;;3.90;99.90;;;;;;5102812;28;20513;-68
2022/03/25 05:53:58;;;;;;;20.20;12.60;;;3.80;1.00;;;;;;5110822;28;20501;-69
2022/03/25 05:56:25;;;;;;;18.50;12.50;;;3.80;1.00;;;;;;5102251;28;20483;-70
2022/03/25 05:58:52;;;;;;;27.57;14.40;;;3.70;1.00;;;;;;5104913;28;20444;-69
2022/03/25 06:01:19;;;;;;;25.87;14.60;;;3.70;1.00;;;;;;5111303;28;20443;-69
2022/03/25 06:03:46;;;;;;;23.40;13.80;;;3.80;1.00;;;;;;5106293;28;20454;-69
2022/03/25 06:06:15;;;;;;;21.43;13.73;;;3.90;1.00;;;;;;5110348;28;20471;-69
2022/03/25 06:08:42;;;;;;;25.07;13.87;;;3.90;1.00;;;;;;5110889;28;20543;-69
2022/03/25 06:11:09;;;;;;;18.43;11.97;;;4.30;99.90;;;;;;5111310;28;20903;-68
2022/03/25 06:13:36;;;;;;;26.93;14.00;;;4.30;99.90;;;;;;5110654;28;20443;-70
2022/03/25 06:16:03;;;;;;;25.17;14.10;;;4.40;99.90;;;;;;5110339;28;20479;-70
2022/03/25 06:18:30;;;;;;;20.07;12.93;;;4.60;57.20;;;;;;5107008;28;20446;-68
2022/03/25 06:20:57;;;;;;;23.97;16.17;;;4.50;1.00;;;;;;5100630;28;20497;-69
2022/03/25 06:23:25;;;;;;;24.17;14.10;;;4.50;1.00;;;;;;5104752;28;20872;-69
2022/03/25 06:25:52;;;;;;;25.50;13.90;;;4.60;65.80;;;;;;5107772;28;20475;-68
2022/03/25 06:28:23;;;;;;;22.60;14.33;;;4.70;1.00;;;;;;5107348;28;20558;-68
2022/03/25 06:30:50;;;;;;;22.63;13.93;;;;;;;;;;5105129;28;20471;-68
2022/03/25 06:33:18;;;;;;;20.63;13.50;;;;;;;;;;5111414;28;20444;-68
2022/03/25 06:35:45;;;;;;;22.67;15.17;;;;;;;;;;5110846;28;20962;-68
2022/03/25 06:38:12;;;;;;;22.73;14.17;;;;;;;;;;5111359;28;20461;-68
2022/03/25 06:40:41;;;;;;;20.47;13.07;;;;;;;;;;5102208;28;20452;-68
2022/03/25 06:43:08;;;;;;;26.50;15.00;;;;;;;;;;5105154;28;20956;-69
2022/03/25 06:45:35;;;;;;;30.10;15.87;;;;;;;;;;5109898;28;20466;-70
2022/03/25 06:48:03;;;;;;;23.10;14.43;;;4.80;99.90;;;;;;5113783;28;20853;-69
2022/03/25 06:50:30;;;;;;;31.47;16.37;;;;;;;;;;5114697;28;20462;-68
2022/03/25 06:53:00;;;;;;;24.63;13.70;;;;;;;;;;5109573;28;20541;-68
2022/03/25 06:55:28;;;;;;;24.00;14.50;;;;;;;;;;5109539;28;20559;-70
2022/03/25 06:57:57;;;;;;;25.70;15.00;;;;;;;;;;5116005;28;20827;-69
2022/03/25 07:00:25;;;;;;;23.73;15.27;;;;;;;;;;5115444;28;20943;-69
2022/03/25 07:02:53;;;;;;;24.17;15.23;;;;;;;;;;5112493;28;20439;-69
2022/03/25 07:05:21;;;;;;;25.30;16.47;;;;;;;;;;5112547;28;20474;-69
2022/03/25 07:07:49;;;;;;;26.47;15.17;;;;;;;;;;5103283;28;20961;-69
2022/03/25 07:10:19;;;;;;;23.20;14.67;;;;;;;;;;5101299;28;20466;-69
2022/03/25 07:12:47;;;;;;;29.70;15.67;;;;;;;;;;5113337;28;20474;-69
2022/03/25 07:15:15;;;;;;;26.67;15.13;;;;;;;;;;5110817;28;20494;-69
2022/03/25 07:17:43;;;;;;;27.43;15.63;;;;;;;;;;5097726;28;21022;-69
2022/03/25 07:20:14;;;;;;;21.93;15.10;;;;;;;;;;5110592;28;20527;-70
2022/03/25 07:22:41;;;;;;;24.63;15.47;;;;;;;;;;5107317;28;20448;-69
2022/03/25 07:25:08;;;;;;;22.40;14.47;;;;;;;;;;5098522;28;20451;-69
2022/03/25 07:27:35;;;;;;;25.87;15.20;;;;;;;;;;5111510;28;20483;-70
2022/03/25 07:30:03;;;;;;;23.47;15.17;;;;;;;;;;5109368;28;20467;-69
2022/03/25 07:32:32;;;;;;;27.93;16.40;;;;;;;;;;5101216;28;20448;-69
2022/03/25 07:34:59;;;;;;;23.80;15.10;;;;;;;;;;5112240;28;20439;-69
2022/03/25 07:37:27;;;;;;;25.73;15.50;;;;;;;;;;5114956;28;20466;-69
2022/03/25 07:39:55;;;;;;;25.83;17.60;;;;;;;;;;5114338;28;20452;-69
2022/03/25 07:42:22;;;;;;;30.00;16.90;;;;;;;;;;5115144;28;20447;-70
2022/03/25 07:44:49;;;;;;;25.50;16.70;;;;;;;;;;5108083;28;20482;-70
2022/03/25 07:47:17;;;;;;;26.03;17.10;;;;;;;;;;5117741;28;20827;-70
2022/03/25 07:49:45;;;;;;;34.07;18.30;;;;;;;;;;5105085;28;20440;-69
2022/03/25 07:52:13;;;;;;;34.97;18.17;;;;;;;;;;5113366;28;20451;-68
2022/03/25 07:54:41;;;;;;;29.03;16.43;;;;;;;;;;5110561;28;20483;-67
2022/03/25 07:57:08;;;;;;;29.20;18.37;;;;;;;;;;5112254;28;20459;-70
2022/03/25 07:59:36;;;;;;;30.93;18.47;;;;;;;;;;5107060;28;20454;-68
2022/03/25 08:02:03;;;;;;;35.03;16.93;;;;;;;;;;5109477;28;20505;-69
2022/03/25 08:04:30;;;;;;;31.30;18.10;;;;;;;;;;5112610;28;20535;-70
2022/03/25 08:06:58;;;;;;;28.73;18.03;;;;;;;;;;5111442;28;20568;-70
2022/03/25 08:09:26;;;;;;;31.10;19.17;;;;;;;;;;5111532;28;20531;-70
2022/03/25 08:11:53;;;;;;;28.13;16.07;;;;;;;;;;5103462;28;20448;-69
2022/03/25 08:14:21;;;;;;;26.83;16.87;;;;;;;;;;5097554;28;20449;-69
2022/03/25 08:16:48;;;;;;;28.23;16.77;;;;;;;;;;5108530;28;20723;-70
2022/03/25 08:19:16;;;;;;;29.57;18.73;;;;;;;;;;5111314;28;20452;-70
2022/03/25 08:21:43;;;;;;;29.33;16.90;;;;;;;;;;5112485;28;21270;-70
2022/03/25 08:29:41;;;;;;;28.33;18.10;;;;;;;;;;5109889;28;20430;-69
2022/03/25 08:32:08;;;;;;;28.07;18.53;;;;;;;;;;5112368;28;20531;-69
2022/03/25 08:34:35;;;;;;;27.83;17.90;;;;;;;;;;5098360;28;20464;-69
2022/03/25 08:37:02;;;;;;;28.73;18.80;;;;;;;;;;5112525;28;20448;-69
2022/03/25 08:39:31;;;;;;;29.90;17.43;;;;;;;;;;5112142;28;20456;-69
2022/03/25 08:41:58;;;;;;;32.77;17.03;;;;;;;;;;5109808;28;20887;-70
2022/03/25 08:44:25;;;;;;;42.00;19.00;;;;;;;;;;5108881;28;20459;-69
2022/03/25 08:46:52;;;;;;;32.10;16.13;;;;;;;;;;5099728;28;20536;-69
2022/03/25 08:49:20;;;;;;;29.23;19.97;;;;;;;;;;5109507;28;20817;-69
2022/03/25 08:51:47;;;;;;;30.10;18.67;;;;;;;;;;5111595;28;20466;-69
2022/03/25 08:54:18;;;;;;;28.67;18.30;;;;;;;;;;5098757;28;20458;-68
2022/03/25 08:56:47;;;;;;;29.77;18.97;;;;;;;;;;5112460;28;20455;-69
2022/03/25 08:59:14;;;;;;;32.07;18.93;;;;;;;;;;5111287;28;20440;-69
2022/03/25 09:01:42;;;;;;;28.83;18.80;;;;;;;;;;5105657;28;20966;-70
2022/03/25 09:04:09;;;;;;;32.63;18.33;;;;;;;;;;5107614;28;20451;-69
2022/03/25 09:06:37;;;;;;;25.37;17.80;;;;;;;;;;5111241;28;20448;-69
2022/03/25 09:09:04;;;;;;;32.87;19.27;;;;;;;;;;5111275;28;20471;-69
2022/03/25 09:11:31;;;;;;;31.13;19.47;;;;;;;;;;5110850;28;21017;-69
2022/03/25 09:14:00;;;;;;;36.47;19.50;;;;;;;;;;5110267;28;20448;-69
2022/03/25 09:16:28;;;;;;;28.40;18.40;;;;;;;;;;5111809;28;20493;-69
2022/03/25 09:18:56;;;;;;;30.50;19.73;;;;;;;;;;5112150;28;20490;-69
2022/03/25 09:21:23;;;;;;;29.60;18.87;;;;;;;;;;5105651;28;20456;-70
2022/03/25 09:23:50;;;;;;;29.70;18.07;;;;;;;;;;5110856;28;20462;-69
2022/03/25 09:26:18;;;;;;;32.77;19.77;;;;;;;;;;5106179;28;20936;-70
2022/03/25 09:28:45;;;;;;;29.60;17.03;;;;;;;;;;5099457;28;20475;-70
2022/03/25 09:31:14;;;;;;;31.13;18.43;;;;;;;;;;5099264;28;20479;-71
2022/03/25 09:33:41;;;;;;;29.53;18.63;;;;;;;;;;5110852;28;20448;-71
2022/03/25 09:36:08;;;;;;;29.40;18.93;;;;;;;;;;5106010;28;20526;-71
2022/03/25 09:38:35;;;;;;;28.40;17.70;;;;;;;;;;5111499;28;20936;-72
2022/03/25 09:41:06;;;;;;;28.17;19.03;;;;;;;;;;5094549;28;20481;-71
2022/03/25 09:43:34;;;;;;;36.00;18.97;;;;;;;;;;5103470;28;20444;-71
2022/03/25 09:46:01;;;;;;;28.37;17.87;;;;;;;;;;5111646;28;20455;-71
2022/03/25 09:48:30;;;;;;;27.93;16.60;;;;;;;;;;5103893;28;20468;-71
2022/03/25 09:50:57;;;;;;;29.40;19.70;;;;;;;;;;5095697;28;20491;-71
2022/03/25 09:53:28;;;;;;;28.57;20.33;;;;;;;;;;5110782;28;20997;-72
2022/03/25 09:55:56;;;;;;;32.17;19.10;;;;;;;;;;5111640;28;20490;-72
2022/03/25 09:58:23;;;;;;;34.10;19.00;;;;;;;;;;5111715;28;20864;-71
2022/03/25 10:00:51;;;;;;;34.70;21.17;;;;;;;;;;5103976;28;20917;-72
2022/03/25 10:03:24;;;;;;;30.73;21.00;;;;;;;;;;5111348;28;20479;-71
2022/03/25 10:05:57;;;;;;;26.53;19.17;;;;;;;;;;5090672;28;20440;-71
2022/03/25 10:08:31;;;;;;;27.80;19.77;;;;;;;;;;5104688;28;20483;-71
2022/03/25 10:10:58;;;;;;;30.60;21.10;;;;;;;;;;5107543;28;20823;-72
2022/03/25 10:13:25;;;;;;;26.30;18.10;;;;;;;;;;5101470;28;20440;-71
2022/03/25 10:15:52;;;;;;;29.80;19.47;;;;;;;;;;5098281;28;20534;-72
2022/03/25 10:18:20;;;;;;;30.30;19.70;;;;;;;;;;5095879;28;20444;-71
2022/03/25 10:20:47;;;;;;;30.00;20.20;;;;;;;;;;5110101;28;21007;-71
2022/03/25 10:23:17;;;;;;;30.40;19.00;;;;;;;;;;5108426;28;20957;-72
2022/03/25 10:25:47;;;;;;;26.07;18.97;;;;;;;;;;5100127;28;20455;-72
2022/03/25 10:28:25;;;;;;;29.83;21.30;;;;;;;;;;5110455;28;20468;-71
2022/03/25 10:30:52;;;;;;;32.50;20.50;;;;;;;;;;5106369;28;20439;-71
2022/03/25 10:33:27;;;;;;;30.20;20.40;;;;;;;;;;5111734;28;20458;-71
2022/03/25 10:35:56;;;;;;;28.50;18.17;;;;;;;;;;5106294;28;20440;-68
2022/03/25 10:38:25;;;;;;;27.07;17.60;;;;;;;;;;5109602;28;20490;-70
2022/03/25 10:40:53;;;;;;;27.20;18.73;;;;;;;;;;5102119;28;20511;-69
2022/03/25 10:43:21;;;;;;;25.13;18.40;;;;;;;;;;5095604;28;20502;-70
2022/03/25 10:45:49;;;;;;;25.73;18.07;;;;;;;;;;5096293;28;20519;-71
2022/03/25 10:48:17;;;;;;;31.07;19.70;;;;;;;;;;5105419;28;20975;-69
2022/03/25 10:50:57;;;;;;;26.13;19.10;;;;;;;;;;5102380;28;20433;-71
2022/03/25 10:53:26;;;;;;;26.43;18.20;;;;;;;;;;5091999;28;20951;-71
2022/03/25 10:55:54;;;;;;;27.20;19.50;;;;;;;;;;5103254;28;20562;-71
2022/03/25 10:58:21;;;;;;;31.30;19.80;;;;;;;;;;5111246;28;20519;-71
2022/03/25 11:00:48;;;;;;;27.87;19.33;;;;;;;;;;5108595;28;20791;-70
2022/03/25 11:03:16;;;;;;;27.87;19.03;;;;;;;;;;5108850;28;20818;-71
2022/03/25 11:05:43;;;;;;;32.30;21.90;;;;;;;;;;5107733;28;20528;-70
2022/03/25 11:08:10;;;;;;;26.47;19.53;;;;;;;;;;5110387;28;20482;-70
2022/03/25 11:10:39;;;;;;;25.83;19.23;;;;;;;;;;5109698;28;20451;-70
2022/03/25 11:13:08;;;;;;;27.80;20.23;;;;;;;;;;5110483;28;20448;-71
2022/03/25 11:15:36;;;;;;;30.90;18.83;;;;;;;;;;5109787;28;20452;-70
2022/03/25 11:18:03;;;;;;;30.27;20.03;;;;;;;;;;5110679;28;20431;-72
2022/03/25 11:20:30;;;;;;;27.77;20.70;;;;;;;;;;5110086;28;20439;-71
2022/03/25 11:23:06;;;;;;;28.30;19.83;;;;;;;;;;5110949;28;20443;-72
2022/03/25 11:25:37;;;;;;;29.03;21.10;;;;;;;;;;5110349;28;20451;-71
2022/03/25 11:28:09;;;;;;;29.13;18.60;;;;;;;;;;5110614;28;20468;-71
2022/03/25 11:30:37;;;;;;;23.30;17.47;;;;;;;;;;5110950;28;20435;-72
2022/03/25 11:33:06;;;;;;;25.93;17.73;;;;;;;;;;5114499;28;20504;-72
2022/03/25 11:35:34;;;;;;;25.87;17.97;;;;;;;;;;5114482;28;20475;-71
2022/03/25 11:38:15;;;;;;;25.73;19.80;;;;;;;;;;5115279;28;20557;-71
2022/03/25 11:40:44;;;;;;;24.20;17.70;;;;;;;;;;5114419;28;20530;-71
2022/03/25 11:43:15;;;;;;;26.80;19.33;;;;;;;;;;5116111;28;20439;-72
2022/03/25 11:45:43;;;;;;;31.63;19.20;;;;;;;;;;5115729;28;20460;-72
2022/03/25 11:48:28;;;;;;;26.53;18.70;;;;;;;;;;5115824;28;20517;-72
2022/03/25 11:50:56;;;;;;;26.80;17.33;;;;;;;;;;5111367;28;20454;-72
2022/03/25 11:53:33;;;;;;;27.30;19.87;;;;;;;;;;5114184;28;20446;-72
2022/03/25 11:56:01;;;;;;;23.63;19.07;;;;;;;;;;5113853;28;20477;-70
2022/03/25 11:58:31;;;;;;;25.23;18.30;;;;;;;;;;5114515;28;20479;-71
2022/03/25 12:01:02;;;;;;;24.07;20.07;;;;;;;;;;5114303;28;20443;-71
2022/03/25 12:03:42;;;;;;;25.40;19.57;;;;;;;;;;5113772;28;20917;-71
2022/03/25 12:06:10;;;;;;;28.40;19.33;;;;;;;;;;5101665;28;20487;-72
2022/03/25 12:08:39;;;;;;;25.70;18.40;;;;;;;;;;5113318;28;20483;-71
2022/03/25 12:11:07;;;;;;;23.67;18.23;;;;;;;;;;5114139;28;20454;-71
2022/03/25 12:13:53;;;;;;;25.40;20.27;;;;;;;;;;5113358;28;20465;-71
2022/03/25 12:16:39;;;;;;;21.67;17.37;;;;;;;;;;5113624;28;20443;-71
2022/03/25 12:19:28;;;;;;;22.23;17.67;;;;;;;;;;5101538;28;20462;-71
2022/03/25 12:21:57;;;;;;;33.77;23.00;;;;;;;;;;5113668;28;20447;-72
2022/03/25 12:24:24;;;;;;;25.53;19.03;;;;;;;;;;5113368;28;20456;-71
2022/03/25 12:26:55;;;;;;;28.13;18.70;;;;;;;;;;5113179;28;20454;-72
2022/03/25 12:29:29;;;;;;;25.20;19.87;;;;;;;;;;5113146;28;20502;-70
2022/03/25 12:31:56;;;;;;;30.10;20.00;;;;;;;;;;5113034;28;20444;-71
2022/03/25 12:34:30;;;;;;;26.13;18.90;;;;;;;;;;5112864;28;20440;-71
2022/03/25 12:37:00;;;;;;;28.03;21.40;;;;;;;;;;5113293;28;20947;-71
2022/03/25 12:39:29;;;;;;;24.97;18.80;;;;;;;;;;5113313;28;20440;-72
2022/03/25 12:41:56;;;;;;;23.40;18.20;;;;;;;;;;5112751;28;20851;-71
2022/03/25 12:44:28;;;;;;;21.97;17.23;;;;;;;;;;5112631;28;20483;-72
2022/03/25 12:46:58;;;;;;;22.43;18.20;;;;;;;;;;5113546;28;20802;-73
2022/03/25 12:49:25;;;;;;;23.13;18.67;;;;;;;;;;5113440;28;20564;-71
2022/03/25 12:51:56;;;;;;;23.87;18.87;;;;;;;;;;5112377;28;20452;-72
2022/03/25 12:54:24;;;;;;;25.20;18.90;;;;;;;;;;5112266;28;20455;-71
2022/03/25 12:56:55;;;;;;;27.10;18.80;;;;;;;;;;5112767;28;20451;-71
2022/03/25 12:59:29;;;;;;;26.93;20.87;;;;;;;;;;5112702;28;20447;-73
2022/03/25 13:01:56;;;;;;;19.87;16.83;;;;;;;;;;5113040;28;20932;-71
2022/03/25 13:04:29;;;;;;;27.03;19.97;;;;;;;;;;5112717;28;20443;-71
2022/03/25 13:07:00;;;;;;;24.60;19.13;;;;;;;;;;5112647;28;20448;-73
2022/03/25 13:09:29;;;;;;;26.60;18.83;;;;;;;;;;5112950;28;20558;-72
2022/03/25 13:12:02;;;;;;;28.83;20.77;;;;;;;;;;5113060;28;20531;-71
2022/03/25 13:14:29;;;;;;;25.40;18.17;;;;;;;;;;5111850;28;20524;-71
2022/03/25 13:16:56;;;;;;;25.73;18.37;;;;;;;;;;5112698;28;20478;-71
2022/03/25 13:19:30;;;;;;;23.07;18.00;;;;;;;;;;5112604;28;20530;-72
2022/03/25 13:21:57;;;;;;;23.43;17.73;;;;;;;;;;5112393;28;20522;-71
2022/03/25 13:24:25;;;;;;;21.40;17.70;;;;;;;;;;5111641;28;20539;-72
2022/03/25 13:26:54;;;;;;;22.17;19.07;;;;;;;;;;5105458;28;20455;-72
2022/03/25 13:29:21;;;;;;;24.57;19.30;;;;;;;;;;5096157;28;20484;-72
2022/03/25 13:31:51;;;;;;;29.93;20.10;;;;;;;;;;5106935;28;20685;-71
2022/03/25 13:34:19;;;;;;;28.70;21.20;;;;;;;;;;5102329;28;20537;-70
2022/03/25 13:36:54;;;;;;;22.17;18.00;;;;;;;;;;5111560;28;20467;-71
2022/03/25 13:39:21;;;;;;;26.20;19.43;;;;;;;;;;5110989;28;20449;-68
2022/03/25 13:41:48;;;;;;;24.60;18.17;;;;;;;;;;5111278;28;20815;-69
2022/03/25 13:44:17;;;;;;;26.50;18.30;;;;;;;;;;5100038;28;20459;-72
2022/03/25 13:46:44;;;;;;;20.10;17.80;;;;;;;;;;5100543;28;21058;-70
2022/03/25 13:49:12;;;;;;;22.03;17.97;;;;;;;;;;5103919;28;20475;-71
2022/03/25 13:51:40;;;;;;;25.80;19.30;;;;;;;;;;5097705;28;20523;-71